Time;durP1;ratioP1;P1;durP2;ratioP2;P2;SDS_P1;SDS_P2;PMS_P1;PMS_P2;Temp;Humidity;BMP_temperature;BMP_pressure;BME280_temperature;BME280_humidity;BME280_pressure;Samples;Min_cycle;Max_cycle;Signal;HPM_P1;HPM_P2
2022/03/28 00:02:03;;;;;;;15.50;10.05;;;19.00;45.20;;;;;;5002639;28;20022;-77
2022/03/28 00:04:33;;;;;;;15.68;10.75;;;19.00;45.20;;;;;;5002068;28;20025;-76
2022/03/28 00:06:59;;;;;;;;;;;19.00;45.10;;;;;;5004186;28;20112;-77
2022/03/28 00:09:25;;;;;;;13.48;10.02;;;19.00;45.20;;;;;;5002869;28;20427;-77
2022/03/28 00:11:52;;;;;;;13.68;9.82;;;19.00;45.10;;;;;;5003834;28;20017;-77
2022/03/28 00:14:19;;;;;;;12.95;10.07;;;19.00;45.00;;;;;;5021076;28;20022;-78
2022/03/28 00:16:45;;;;;;;13.48;10.05;;;19.00;45.00;;;;;;5019929;28;20033;-76
2022/03/28 00:19:11;;;;;;;13.10;10.07;;;19.00;45.00;;;;;;5002617;28;20084;-78
2022/03/28 00:21:37;;;;;;;12.50;9.52;;;19.00;45.60;;;;;;5003484;28;20022;-77
2022/03/28 00:24:04;;;;;;;12.65;9.88;;;19.00;44.90;;;;;;5021383;28;20038;-76
2022/03/28 00:26:31;;;;;;;12.85;9.90;;;19.00;44.80;;;;;;5003917;28;20022;-78
2022/03/28 00:28:57;;;;;;;13.73;10.13;;;19.00;44.70;;;;;;4987737;28;20042;-76
2022/03/28 00:31:22;;;;;;;11.55;9.07;;;19.00;44.70;;;;;;4987542;28;20029;-78
2022/03/28 00:33:49;;;;;;;13.70;10.30;;;19.00;44.80;;;;;;5003587;28;20046;-77
2022/03/28 00:36:16;;;;;;;13.30;9.85;;;19.00;44.80;;;;;;5007350;28;20022;-78
2022/03/28 00:38:43;;;;;;;12.20;8.82;;;18.90;44.80;;;;;;5008625;28;20033;-80
2022/03/28 00:41:09;;;;;;;12.63;9.82;;;18.90;44.80;;;;;;5007623;28;20030;-77
2022/03/28 00:43:42;;;;;;;13.35;10.00;;;18.90;44.70;;;;;;5006966;28;20026;-76
2022/03/28 00:46:08;;;;;;;13.02;10.18;;;18.90;44.70;;;;;;5008050;28;20029;-76
2022/03/28 00:48:35;;;;;;;13.90;10.00;;;18.90;44.70;;;;;;5024242;28;20022;-76
2022/03/28 00:51:01;;;;;;;14.82;10.25;;;18.90;44.80;;;;;;5005538;28;20021;-76
2022/03/28 00:53:27;;;;;;;12.48;9.93;;;18.90;44.70;;;;;;5004831;28;20129;-76
2022/03/28 00:55:54;;;;;;;11.30;8.90;;;18.90;44.60;;;;;;5005093;28;20599;-76
2022/03/28 00:58:21;;;;;;;11.95;9.40;;;18.90;44.60;;;;;;5005860;28;20021;-76
2022/03/28 01:00:46;;;;;;;13.45;9.90;;;18.90;44.50;;;;;;5005363;28;20026;-76
2022/03/28 01:03:13;;;;;;;11.85;9.20;;;18.90;44.50;;;;;;5006100;28;20022;-76
2022/03/28 01:05:39;;;;;;;12.70;10.00;;;18.90;44.50;;;;;;5020639;28;20018;-75
2022/03/28 01:08:05;;;;;;;12.75;9.68;;;18.80;44.50;;;;;;4999084;28;20088;-74
2022/03/28 01:10:32;;;;;;;12.43;9.10;;;18.90;44.50;;;;;;4999816;28;20024;-75
2022/03/28 01:13:00;;;;;;;12.90;9.90;;;18.90;44.40;;;;;;5000105;28;20013;-75
2022/03/28 01:15:26;;;;;;;12.15;9.65;;;18.80;44.40;;;;;;5000211;28;20034;-74
2022/03/28 01:18:09;;;;;;;12.50;9.20;;;18.90;44.40;;;;;;5016874;28;20520;-79
2022/03/28 01:20:36;;;;;;;12.02;8.93;;;18.90;44.20;;;;;;5003668;28;20076;-75
2022/03/28 01:23:02;;;;;;;12.38;9.63;;;18.90;44.20;;;;;;5005540;28;20037;-76
2022/03/28 01:25:29;;;;;;;11.20;8.85;;;18.80;44.20;;;;;;5006298;28;20038;-76
2022/03/28 01:27:55;;;;;;;12.05;8.85;;;18.90;44.20;;;;;;5023758;28;20041;-76
2022/03/28 01:30:21;;;;;;;12.77;9.10;;;18.90;44.10;;;;;;4990357;28;20014;-77
2022/03/28 01:32:48;;;;;;;11.13;9.13;;;18.90;43.90;;;;;;5006292;28;20022;-75
2022/03/28 01:35:47;;;;;;;12.60;9.40;;;18.90;43.80;;;;;;5005916;28;20029;-75
2022/03/28 01:38:14;;;;;;;11.60;9.32;;;18.90;43.90;;;;;;4941892;29;20044;-78
2022/03/28 01:40:46;;;;;;;13.13;9.02;;;18.90;43.90;;;;;;4925782;29;20028;-74
2022/03/28 01:43:12;;;;;;;13.02;8.55;;;18.90;43.90;;;;;;4941654;29;20032;-76
2022/03/28 01:45:40;;;;;;;11.57;8.95;;;18.90;43.80;;;;;;4943058;29;20027;-75
2022/03/28 01:48:06;;;;;;;12.30;9.32;;;18.90;43.70;;;;;;4926955;29;20095;-74
2022/03/28 01:50:32;;;;;;;12.63;9.00;;;18.90;43.60;;;;;;4942887;29;20409;-76
2022/03/28 01:52:59;;;;;;;11.90;8.93;;;18.80;43.60;;;;;;4927027;29;20043;-78
2022/03/28 01:55:25;;;;;;;12.45;9.02;;;18.80;43.60;;;;;;4944775;29;20035;-75
2022/03/28 01:57:52;;;;;;;13.07;9.07;;;18.80;43.60;;;;;;4942585;29;20752;-75
2022/03/28 02:00:19;;;;;;;12.73;8.90;;;18.80;43.50;;;;;;4943686;29;20541;-78
2022/03/28 02:02:47;;;;;;;11.80;8.77;;;18.80;43.50;;;;;;4942610;29;20027;-75
2022/03/28 02:05:15;;;;;;;11.23;8.68;;;18.80;43.50;;;;;;4924928;29;20050;-75
2022/03/28 02:07:43;;;;;;;11.93;8.98;;;18.80;43.30;;;;;;4922717;29;20074;-76
2022/03/28 02:10:10;;;;;;;11.55;8.25;;;18.80;43.30;;;;;;4938805;29;20503;-76
2022/03/28 02:12:37;;;;;;;11.50;8.57;;;18.80;43.20;;;;;;4940108;28;20028;-75
2022/03/28 02:17:37;;;;;;;11.00;8.35;;;18.80;43.20;;;;;;5021775;23;20104;-75
2022/03/28 02:20:05;;;;;;;12.00;8.80;;;18.80;43.20;;;;;;5016322;28;20030;-74
2022/03/28 02:22:32;;;;;;;10.40;8.63;;;18.80;43.10;;;;;;5017994;28;20025;-77
2022/03/28 02:25:00;;;;;;;10.80;8.30;;;18.80;43.00;;;;;;5018173;28;20133;-74
2022/03/28 02:27:27;;;;;;;10.95;8.25;;;18.80;43.00;;;;;;5018382;28;20014;-77
2022/03/28 02:29:55;;;;;;;11.82;8.68;;;18.90;42.90;;;;;;5017797;28;20033;-76
2022/03/28 02:32:21;;;;;;;13.15;8.50;;;18.80;42.80;;;;;;5017461;28;20596;-78
2022/03/28 02:34:47;;;;;;;11.38;8.55;;;18.80;42.80;;;;;;5017490;28;20034;-76
2022/03/28 02:37:16;;;;;;;10.40;7.85;;;18.80;42.90;;;;;;5015436;28;20026;-76
2022/03/28 02:39:42;;;;;;;11.50;8.23;;;18.80;42.80;;;;;;5019310;28;20037;-75
2022/03/28 02:42:09;;;;;;;11.52;7.97;;;18.80;42.70;;;;;;5017759;28;20088;-77
2022/03/28 02:44:35;;;;;;;9.48;7.88;;;18.80;42.70;;;;;;4997652;28;20534;-75
2022/03/28 02:47:01;;;;;;;11.85;7.95;;;18.80;42.60;;;;;;4998313;28;20021;-75
2022/03/28 02:49:27;;;;;;;11.32;7.82;;;18.80;42.60;;;;;;5015075;28;20069;-78
2022/03/28 02:51:53;;;;;;;10.90;8.00;;;18.80;43.00;;;;;;5017550;28;20026;-74
2022/03/28 02:54:19;;;;;;;10.63;8.02;;;18.80;42.50;;;;;;5016627;28;20030;-74
2022/03/28 02:56:46;;;;;;;11.18;7.82;;;18.80;42.50;;;;;;5017364;28;20486;-76
2022/03/28 02:59:12;;;;;;;10.20;7.82;;;18.80;42.40;;;;;;5019402;28;20032;-76
2022/03/28 03:01:38;;;;;;;10.93;8.18;;;18.80;42.30;;;;;;5018894;28;20042;-79
2022/03/28 03:04:04;;;;;;;11.10;8.30;;;18.80;42.30;;;;;;5002239;28;20018;-80
2022/03/28 03:06:30;;;;;;;11.43;8.18;;;18.80;42.20;;;;;;5019310;28;20026;-78
2022/03/28 03:08:56;;;;;;;9.55;7.65;;;18.80;42.20;;;;;;5022346;28;20018;-77
2022/03/28 03:11:23;;;;;;;11.48;7.78;;;18.80;42.20;;;;;;5024147;28;20068;-77
2022/03/28 03:13:49;;;;;;;9.32;7.30;;;18.80;42.30;;;;;;5020385;28;20022;-80
2022/03/28 03:16:16;;;;;;;9.93;7.53;;;18.80;42.30;;;;;;5020886;28;20112;-76
2022/03/28 03:18:41;;;;;;;9.68;7.43;;;18.80;42.10;;;;;;5022673;28;20084;-77
2022/03/28 03:21:07;;;;;;;9.98;7.53;;;18.80;42.00;;;;;;5020547;28;20042;-78
2022/03/28 03:23:33;;;;;;;9.77;7.50;;;18.90;42.10;;;;;;5020523;28;20022;-76
2022/03/28 03:26:00;;;;;;;8.40;7.05;;;18.90;41.80;;;;;;5020251;28;20045;-75
2022/03/28 03:28:27;;;;;;;11.20;7.38;;;19.10;41.40;;;;;;5021190;28;20013;-76
2022/03/28 03:30:53;;;;;;;9.55;7.50;;;19.40;40.90;;;;;;5019661;28;20018;-75
2022/03/28 03:33:19;;;;;;;11.13;7.75;;;19.50;40.60;;;;;;5019458;28;20109;-76
2022/03/28 03:35:44;;;;;;;9.23;7.00;;;19.60;40.20;;;;;;5002846;28;20060;-77
2022/03/28 03:38:11;;;;;;;9.68;7.28;;;19.70;40.00;;;;;;5018387;28;20018;-76
2022/03/28 03:40:37;;;;;;;11.57;7.70;;;19.80;39.80;;;;;;5035314;28;20026;-75
2022/03/28 03:43:02;;;;;;;9.85;7.15;;;19.90;39.50;;;;;;5018559;28;20526;-76
2022/03/28 03:45:28;;;;;;;9.35;6.97;;;20.00;39.20;;;;;;5019420;28;20042;-79
2022/03/28 03:47:55;;;;;;;9.15;6.35;;;20.20;39.00;;;;;;5004408;28;20161;-80
2022/03/28 03:50:20;;;;;;;8.48;6.55;;;20.20;38.60;;;;;;5021586;28;20022;-79
2022/03/28 03:52:47;;;;;;;8.13;6.47;;;20.30;38.30;;;;;;5037156;28;20117;-77
2022/03/28 03:55:13;;;;;;;8.82;6.72;;;20.50;38.10;;;;;;5020015;28;20507;-78
2022/03/28 03:57:40;;;;;;;8.68;6.57;;;20.60;37.90;;;;;;5020051;28;20049;-76
2022/03/28 04:00:07;;;;;;;8.88;6.88;;;20.70;37.70;;;;;;5023257;28;20033;-77
2022/03/28 04:02:33;;;;;;;8.15;6.07;;;20.80;37.50;;;;;;5025442;28;20089;-77
2022/03/28 04:05:00;;;;;;;6.88;5.82;;;20.90;37.20;;;;;;5023348;28;20010;-78
2022/03/28 04:07:25;;;;;;;8.18;6.50;;;21.00;37.00;;;;;;5003664;28;20018;-75
2022/03/28 04:09:51;;;;;;;7.25;5.70;;;21.00;36.80;;;;;;5003282;28;20065;-75
2022/03/28 04:12:17;;;;;;;7.22;6.07;;;21.10;36.60;;;;;;5003045;28;20018;-75
2022/03/28 04:14:43;;;;;;;7.65;6.07;;;21.20;36.50;;;;;;5018658;28;20048;-74
2022/03/28 04:17:10;;;;;;;8.23;6.25;;;21.20;36.30;;;;;;5019052;28;20038;-75
2022/03/28 04:19:36;;;;;;;8.75;6.30;;;21.30;36.20;;;;;;5017466;28;20026;-74
2022/03/28 04:22:02;;;;;;;8.73;6.28;;;21.40;36.00;;;;;;5017553;28;20030;-74
2022/03/28 04:24:28;;;;;;;7.07;5.90;;;21.40;35.90;;;;;;5018684;28;20018;-81
2022/03/28 04:26:55;;;;;;;7.18;6.13;;;21.50;35.80;;;;;;5002481;28;20014;-77
2022/03/28 04:29:21;;;;;;;7.68;5.93;;;21.60;35.70;;;;;;5019512;28;20014;-76
2022/03/28 04:31:48;;;;;;;8.07;6.18;;;21.60;35.60;;;;;;5021853;28;20092;-76
2022/03/28 04:34:14;;;;;;;7.32;5.70;;;21.60;35.50;;;;;;5020771;28;20120;-76
2022/03/28 04:36:41;;;;;;;8.00;6.20;;;21.70;35.40;;;;;;5019056;28;20497;-76
2022/03/28 04:39:07;;;;;;;8.38;5.60;;;21.70;35.30;;;;;;5021190;28;20046;-76
2022/03/28 04:41:32;;;;;;;7.38;5.88;;;21.70;35.20;;;;;;5020825;28;20035;-75
2022/03/28 04:44:00;;;;;;;8.60;6.05;;;21.70;35.10;;;;;;5018903;28;20028;-75
2022/03/28 04:46:27;;;;;;;7.68;5.72;;;21.80;35.10;;;;;;5016934;28;20520;-75
2022/03/28 04:48:53;;;;;;;7.97;5.70;;;21.80;35.10;;;;;;5016830;28;20041;-77
2022/03/28 04:51:19;;;;;;;8.43;5.95;;;21.80;35.00;;;;;;5015595;28;20018;-74
2022/03/28 04:53:45;;;;;;;7.47;5.32;;;21.80;34.90;;;;;;5015090;28;20020;-74
2022/03/28 04:56:11;;;;;;;8.05;6.00;;;21.90;34.90;;;;;;5014750;28;20022;-74
2022/03/28 04:58:37;;;;;;;8.65;6.07;;;21.90;34.80;;;;;;5015813;28;20569;-74
2022/03/28 05:01:03;;;;;;;7.68;5.68;;;21.90;34.70;;;;;;5015121;28;20073;-76
2022/03/28 05:03:29;;;;;;;6.38;5.50;;;21.90;34.60;;;;;;5014617;28;20030;-74
2022/03/28 05:05:56;;;;;;;7.07;5.30;;;21.90;34.60;;;;;;5020128;28;20041;-75
2022/03/28 05:08:24;;;;;;;8.25;5.70;;;21.90;34.60;;;;;;5005387;28;20010;-75
2022/03/28 05:10:50;;;;;;;7.57;5.95;;;21.90;34.50;;;;;;5021569;28;20022;-75
2022/03/28 05:13:16;;;;;;;7.22;5.50;;;21.90;34.50;;;;;;5004512;28;20033;-76
2022/03/28 05:15:41;;;;;;;7.28;5.72;;;22.00;34.50;;;;;;5004132;28;20060;-75
2022/03/28 05:18:08;;;;;;;6.97;5.50;;;22.00;34.40;;;;;;5019905;28;20029;-78
2022/03/28 05:20:34;;;;;;;6.85;5.65;;;22.00;34.30;;;;;;5019074;28;20038;-76
2022/03/28 05:23:00;;;;;;;9.45;5.68;;;22.10;34.30;;;;;;5002209;28;20034;-78
2022/03/28 05:25:26;;;;;;;6.95;5.57;;;22.10;34.20;;;;;;5018023;28;20048;-79
2022/03/28 05:27:52;;;;;;;6.63;5.45;;;22.10;34.20;;;;;;5018920;28;20138;-75
2022/03/28 05:30:19;;;;;;;7.03;5.22;;;22.10;34.10;;;;;;5020707;28;20033;-75
2022/03/28 05:32:46;;;;;;;7.18;5.50;;;22.20;34.10;;;;;;5020349;28;20026;-77
2022/03/28 05:35:16;;;;;;;6.95;5.30;;;22.20;34.00;;;;;;5019806;28;20018;-77
2022/03/28 05:37:42;;;;;;;7.28;5.45;;;22.10;33.90;;;;;;5035694;28;20032;-75
2022/03/28 05:40:10;;;;;;;6.80;5.13;;;22.20;33.90;;;;;;5019524;28;20041;-75
2022/03/28 05:42:36;;;;;;;6.68;5.28;;;22.20;33.80;;;;;;5019533;28;20041;-75
2022/03/28 05:45:03;;;;;;;7.40;5.38;;;22.20;33.70;;;;;;5019137;28;20026;-75
2022/03/28 05:47:29;;;;;;;7.00;5.18;;;22.20;33.60;;;;;;5018946;28;20018;-76
2022/03/28 05:49:55;;;;;;;6.95;5.57;;;22.30;33.60;;;;;;5017934;28;20010;-74
2022/03/28 05:52:24;;;;;;;6.97;5.10;;;22.30;33.60;;;;;;5017319;28;20432;-75
2022/03/28 05:54:50;;;;;;;7.50;4.93;;;22.20;33.50;;;;;;5002346;28;20026;-75
2022/03/28 05:57:16;;;;;;;7.28;5.20;;;22.30;33.50;;;;;;5018972;28;20025;-75
2022/03/28 05:59:42;;;;;;;9.00;5.82;;;22.40;33.40;;;;;;5016709;28;20437;-75
2022/03/28 06:02:08;;;;;;;7.85;5.20;;;22.50;33.20;;;;;;5017243;28;20030;-78
2022/03/28 06:04:34;;;;;;;7.50;5.30;;;22.60;32.80;;;;;;4999116;28;20175;-76
2022/03/28 06:07:00;;;;;;;7.57;5.30;;;22.80;32.60;;;;;;5015258;28;20029;-75
2022/03/28 06:09:25;;;;;;;7.20;5.22;;;22.90;32.30;;;;;;5016949;28;20022;-75
2022/03/28 06:11:51;;;;;;;7.70;5.10;;;23.00;32.10;;;;;;5014484;28;21294;-75
2022/03/28 06:14:17;;;;;;;8.00;4.88;;;23.10;31.90;;;;;;5013724;28;20041;-78
2022/03/28 06:16:47;;;;;;;6.85;4.97;;;23.10;31.80;;;;;;5014264;28;20501;-75
2022/03/28 06:19:13;;;;;;;8.77;5.50;;;23.10;31.80;;;;;;5014345;28;20025;-75
2022/03/28 06:21:40;;;;;;;9.35;5.97;;;23.00;32.20;;;;;;5015935;28;20124;-72
2022/03/28 06:24:06;;;;;;;15.95;6.90;;;22.90;32.80;;;;;;5012806;28;20033;-74
2022/03/28 06:26:32;;;;;;;35.30;7.65;;;22.80;33.40;;;;;;5012343;28;20026;-73
2022/03/28 06:28:58;;;;;;;32.10;8.43;;;22.70;34.80;;;;;;4996239;28;20025;-76
2022/03/28 06:31:24;;;;;;;39.03;8.40;;;22.60;35.70;;;;;;5014570;28;20022;-76
2022/03/28 06:33:51;;;;;;;24.90;8.70;;;22.50;35.50;;;;;;5015260;28;20022;-75
2022/03/28 06:36:19;;;;;;;22.00;7.90;;;22.50;35.30;;;;;;4997874;28;20416;-76
2022/03/28 06:38:45;;;;;;;24.40;8.07;;;22.50;35.40;;;;;;4997219;28;20108;-76
2022/03/28 06:41:11;;;;;;;27.38;8.85;;;22.50;35.20;;;;;;5013525;28;20030;-74
2022/03/28 06:43:38;;;;;;;21.50;7.68;;;22.50;35.00;;;;;;5013732;28;20100;-74
2022/03/28 06:46:03;;;;;;;18.60;7.40;;;22.50;34.90;;;;;;5030113;28;20033;-74
2022/03/28 06:48:31;;;;;;;19.67;7.72;;;22.50;34.80;;;;;;5014912;28;20014;-75
2022/03/28 06:50:57;;;;;;;19.80;8.00;;;22.50;34.70;;;;;;4982028;28;20021;-75
2022/03/28 06:53:22;;;;;;;18.50;8.13;;;22.50;34.50;;;;;;5015614;28;20022;-76
2022/03/28 06:55:48;;;;;;;21.25;8.10;;;22.60;34.50;;;;;;5014201;28;20026;-74
2022/03/28 06:58:16;;;;;;;19.80;7.97;;;22.60;34.50;;;;;;5014285;28;20050;-74
2022/03/28 07:00:42;;;;;;;19.02;7.68;;;22.60;34.50;;;;;;5014340;28;20034;-74
2022/03/28 07:03:08;;;;;;;17.75;7.90;;;22.70;34.40;;;;;;4997947;28;20014;-73
2022/03/28 07:05:35;;;;;;;16.70;8.05;;;22.70;34.20;;;;;;5016688;28;20028;-75
2022/03/28 07:08:01;;;;;;;15.90;7.60;;;22.70;34.10;;;;;;5015201;28;20025;-77
2022/03/28 07:10:26;;;;;;;18.75;8.77;;;22.80;34.10;;;;;;4999315;28;20030;-75
2022/03/28 07:12:54;;;;;;;28.27;8.35;;;22.80;34.00;;;;;;5017770;28;20034;-76
2022/03/28 07:15:20;;;;;;;20.50;8.07;;;22.80;34.30;;;;;;4983820;28;20029;-75
2022/03/28 07:17:52;;;;;;;24.38;8.23;;;23.00;33.70;;;;;;5013135;28;20369;-75
2022/03/28 07:20:22;;;;;;;22.65;8.50;;;23.00;33.80;;;;;;5012217;28;20024;-77
2022/03/28 07:22:48;;;;;;;40.33;10.02;;;22.80;33.90;;;;;;5012304;28;20026;-79
2022/03/28 07:25:14;;;;;;;33.65;10.02;;;22.80;34.50;;;;;;5013076;28;20377;-77
2022/03/28 07:27:40;;;;;;;28.45;9.63;;;22.80;34.60;;;;;;4995399;28;20017;-76
2022/03/28 07:30:07;;;;;;;30.90;8.90;;;22.80;34.30;;;;;;5013625;28;20014;-78
2022/03/28 07:32:34;;;;;;;22.65;8.68;;;22.80;34.20;;;;;;5013812;28;20030;-78
2022/03/28 07:35:00;;;;;;;16.30;8.00;;;22.80;34.30;;;;;;5013930;28;20477;-76
2022/03/28 07:37:26;;;;;;;22.27;8.30;;;22.80;34.30;;;;;;5014603;28;20030;-76
2022/03/28 07:39:52;;;;;;;21.45;8.98;;;22.70;34.40;;;;;;5014394;28;20057;-79
2022/03/28 07:42:18;;;;;;;24.13;8.80;;;22.70;34.40;;;;;;5015229;28;20022;-81
2022/03/28 07:44:44;;;;;;;20.48;8.25;;;22.70;34.40;;;;;;4998707;28;20385;-78
2022/03/28 07:47:10;;;;;;;22.23;8.60;;;22.70;34.30;;;;;;5015264;28;20007;-76
2022/03/28 07:49:37;;;;;;;21.52;8.73;;;22.70;34.20;;;;;;5014525;28;20018;-77
2022/03/28 07:52:04;;;;;;;21.48;7.82;;;22.70;34.10;;;;;;5014313;28;20013;-77
2022/03/28 07:54:32;;;;;;;17.70;9.23;;;22.70;34.00;;;;;;5018027;28;20041;-78
2022/03/28 07:56:58;;;;;;;23.13;8.30;;;22.70;34.10;;;;;;5017875;28;20077;-76
2022/03/28 07:59:25;;;;;;;19.25;8.57;;;22.70;34.10;;;;;;5018384;28;20014;-78
2022/03/28 08:01:54;;;;;;;22.88;9.25;;;22.80;33.90;;;;;;5003849;28;20087;-76
2022/03/28 08:04:19;;;;;;;18.65;8.60;;;22.90;34.00;;;;;;5019358;28;20095;-75
2022/03/28 08:06:46;;;;;;;26.15;9.13;;;22.90;33.90;;;;;;5019596;28;20026;-76
2022/03/28 08:09:17;;;;;;;25.27;9.50;;;22.50;34.30;;;;;;5023544;28;20030;-76
2022/03/28 08:11:43;;;;;;;21.00;9.00;;;22.70;34.20;;;;;;5019926;28;20430;-75
2022/03/28 08:14:09;;;;;;;24.70;8.63;;;22.80;33.80;;;;;;5000036;28;20127;-74
2022/03/28 08:16:36;;;;;;;20.95;8.95;;;23.00;33.40;;;;;;5018422;28;20038;-75
2022/03/28 08:19:03;;;;;;;22.58;9.05;;;23.20;33.00;;;;;;5020578;28;20381;-75
2022/03/28 08:21:30;;;;;;;35.35;11.30;;;22.90;33.30;;;;;;5019900;28;20100;-79
2022/03/28 08:23:58;;;;;;;43.10;10.20;;;23.00;34.70;;;;;;5018314;28;20090;-78
2022/03/28 08:26:25;;;;;;;30.70;10.20;;;22.20;35.70;;;;;;5018627;28;20113;-83
2022/03/28 08:28:52;;;;;;;34.22;9.85;;;21.70;37.50;;;;;;5001464;28;20504;-78
2022/03/28 08:31:18;;;;;;;30.50;10.43;;;21.30;38.00;;;;;;5000592;28;20026;-77
2022/03/28 08:33:44;;;;;;;26.95;9.85;;;20.90;39.00;;;;;;5016991;28;20021;-76
2022/03/28 08:36:11;;;;;;;27.77;10.73;;;21.00;39.00;;;;;;5017786;28;20017;-76
2022/03/28 08:38:39;;;;;;;22.27;10.65;;;21.00;38.60;;;;;;5018180;28;20495;-77
2022/03/28 08:41:06;;;;;;;25.13;10.70;;;20.40;39.80;;;;;;5000396;28;20026;-76
2022/03/28 08:43:32;;;;;;;22.95;10.48;;;20.30;40.70;;;;;;5017040;28;20061;-78
2022/03/28 08:45:58;;;;;;;20.88;10.50;;;20.40;41.20;;;;;;5000552;28;20030;-76
2022/03/28 08:48:24;;;;;;;18.67;10.13;;;21.10;39.30;;;;;;5016304;28;20058;-76
2022/03/28 08:50:51;;;;;;;18.08;10.15;;;21.70;38.10;;;;;;5016177;28;20037;-76
2022/03/28 08:53:17;;;;;;;28.77;10.90;;;22.00;37.30;;;;;;5017901;28;20025;-76
2022/03/28 08:55:44;;;;;;;24.52;10.73;;;22.20;36.80;;;;;;5017568;28;20045;-78
2022/03/28 08:58:10;;;;;;;27.58;10.32;;;21.90;37.20;;;;;;5018673;28;20022;-76
2022/03/28 09:00:36;;;;;;;21.15;10.50;;;22.20;37.00;;;;;;5017137;28;20021;-75
2022/03/28 09:03:02;;;;;;;18.83;10.60;;;21.50;38.40;;;;;;5017616;28;20030;-75
2022/03/28 09:05:41;;;;;;;23.77;11.27;;;21.40;38.10;;;;;;5015218;28;20014;-76
2022/03/28 09:08:08;;;;;;;27.20;11.70;;;20.90;39.50;;;;;;5016197;28;20018;-75
2022/03/28 09:10:35;;;;;;;29.92;12.15;;;21.10;39.00;;;;;;4998222;28;20034;-75
2022/03/28 09:13:08;;;;;;;36.08;12.10;;;20.70;40.20;;;;;;5017054;28;20029;-76
2022/03/28 09:15:57;;;;;;;31.73;11.85;;;21.00;41.30;;;;;;5017081;28;20492;-76
2022/03/28 09:18:23;;;;;;;30.38;10.82;;;21.80;39.50;;;;;;5016355;28;20034;-71
2022/03/28 09:20:57;;;;;;;37.33;11.45;;;21.90;38.70;;;;;;5016143;28;20018;-75
2022/03/28 09:23:38;;;;;;;24.42;11.07;;;22.20;37.80;;;;;;5016674;28;20108;-76
2022/03/28 09:26:24;;;;;;;24.40;10.90;;;22.10;38.00;;;;;;5016250;28;20020;-76
2022/03/28 09:28:54;;;;;;;20.73;10.88;;;22.20;37.60;;;;;;5015628;28;20084;-74
2022/03/28 09:31:24;;;;;;;30.35;11.48;;;22.30;37.30;;;;;;5000232;28;20006;-76
2022/03/28 09:34:09;;;;;;;25.58;12.07;;;22.40;37.50;;;;;;5017237;28;20045;-74
2022/03/28 09:36:46;;;;;;;24.10;11.20;;;22.50;37.30;;;;;;5017900;28;20029;-82
2022/03/28 09:39:19;;;;;;;18.33;10.70;;;22.70;36.80;;;;;;5000104;28;20080;-75
2022/03/28 09:42:07;;;;;;;22.15;11.35;;;22.80;36.70;;;;;;5018112;28;20014;-75
2022/03/28 09:44:49;;;;;;;22.05;10.30;;;23.00;36.60;;;;;;5017040;28;20030;-73
2022/03/28 09:47:20;;;;;;;22.00;11.45;;;22.70;36.90;;;;;;5000097;28;20449;-75
2022/03/28 09:49:49;;;;;;;19.25;11.07;;;22.80;36.80;;;;;;5016823;28;20017;-75
2022/03/28 09:52:19;;;;;;;21.83;10.93;;;22.90;36.70;;;;;;5016463;28;20020;-75
2022/03/28 09:54:50;;;;;;;26.17;11.10;;;22.90;36.70;;;;;;5017586;28;20021;-75
2022/03/28 09:57:27;;;;;;;26.83;11.30;;;22.40;37.40;;;;;;5002618;28;20018;-78
2022/03/28 09:59:54;;;;;;;25.05;11.02;;;22.40;37.70;;;;;;5004962;28;20028;-79
2022/03/28 10:02:24;;;;;;;26.23;11.23;;;22.20;37.80;;;;;;5020334;28;20006;-83
2022/03/28 10:04:54;;;;;;;26.13;11.15;;;21.70;38.50;;;;;;5019503;28;20104;-74
2022/03/28 10:07:20;;;;;;;;;;;22.10;37.60;;;;;;5019005;28;20108;-73
2022/03/28 10:09:46;;;;;;;36.97;11.43;;;21.80;38.00;;;;;;5017932;28;20427;-72
2022/03/28 10:12:13;;;;;;;30.75;11.88;;;21.90;37.50;;;;;;5017814;28;20018;-79
2022/03/28 10:14:40;;;;;;;26.70;10.52;;;21.50;38.40;;;;;;5016748;28;20084;-76
2022/03/28 10:17:06;;;;;;;32.38;11.52;;;21.90;37.90;;;;;;4999962;28;20073;-74
2022/03/28 10:19:38;;;;;;;31.02;11.70;;;21.30;38.90;;;;;;5018156;28;20041;-76
2022/03/28 10:22:31;;;;;;;24.00;10.60;;;21.70;38.00;;;;;;5001427;28;20010;-74
2022/03/28 10:25:08;;;;;;;22.17;10.55;;;21.70;37.90;;;;;;5017560;28;20123;-75
2022/03/28 10:27:34;;;;;;;19.85;9.98;;;21.50;37.40;;;;;;5017039;28;20117;-74
2022/03/28 10:30:11;;;;;;;21.70;10.35;;;21.40;38.10;;;;;;5018603;28;20034;-76
2022/03/28 10:32:38;;;;;;;23.58;10.80;;;21.40;38.20;;;;;;5017483;28;20034;-76
2022/03/28 10:35:07;;;;;;;18.80;10.65;;;21.50;37.20;;;;;;5001685;28;20014;-73
2022/03/28 10:37:49;;;;;;;21.05;11.20;;;20.80;38.30;;;;;;5017731;28;20082;-76
2022/03/28 10:40:22;;;;;;;20.52;9.88;;;20.30;39.30;;;;;;5002134;28;20481;-73
2022/03/28 10:43:02;;;;;;;19.17;10.00;;;20.70;38.80;;;;;;5019464;28;20029;-79
2022/03/28 10:45:33;;;;;;;18.02;9.13;;;20.30;39.70;;;;;;5019959;28;20481;-73
2022/03/28 10:47:59;;;;;;;16.13;8.85;;;20.40;39.60;;;;;;5020225;28;20100;-79
2022/03/28 10:50:37;;;;;;;23.42;9.50;;;20.60;39.90;;;;;;5023634;28;20038;-82
2022/03/28 10:53:08;;;;;;;25.30;8.60;;;21.30;39.20;;;;;;5023307;28;20018;-77
2022/03/28 10:55:48;;;;;;;30.42;7.78;;;21.90;38.30;;;;;;5003689;28;20037;-76
2022/03/28 10:58:25;;;;;;;21.00;8.05;;;22.30;37.10;;;;;;5019448;28;20029;-78
2022/03/28 11:01:13;;;;;;;20.50;8.50;;;22.50;37.20;;;;;;5017282;28;20010;-79
2022/03/28 11:03:51;;;;;;;21.80;7.88;;;22.70;36.30;;;;;;5017709;28;20026;-76
2022/03/28 11:06:18;;;;;;;19.13;7.57;;;22.90;36.00;;;;;;5018850;28;20466;-76
2022/03/28 11:09:04;;;;;;;21.13;7.47;;;23.00;35.70;;;;;;5021332;28;20026;-82
2022/03/28 11:11:32;;;;;;;18.17;7.57;;;23.10;35.60;;;;;;5020241;28;20105;-77
2022/03/28 11:14:04;;;;;;;18.23;7.90;;;23.20;35.20;;;;;;5019596;28;20028;-76
2022/03/28 11:16:42;;;;;;;18.10;7.78;;;23.40;35.20;;;;;;5019359;28;20105;-77
2022/03/28 11:19:31;;;;;;;17.92;7.72;;;23.50;34.80;;;;;;5019430;28;20469;-75
2022/03/28 11:22:03;;;;;;;18.92;8.05;;;23.60;34.80;;;;;;5001781;28;20014;-77
2022/03/28 11:24:54;;;;;;;15.75;7.38;;;23.60;35.00;;;;;;5017259;28;20469;-77
2022/03/28 11:27:21;;;;;;;15.63;8.10;;;23.70;34.80;;;;;;5020445;28;20077;-79
2022/03/28 11:29:47;;;;;;;15.52;7.60;;;23.70;34.80;;;;;;5023275;28;20038;-75
2022/03/28 11:32:18;;;;;;;24.88;9.63;;;23.60;34.90;;;;;;5021825;28;20040;-83
2022/03/28 11:34:53;;;;;;;;;;;23.70;34.50;;;;;;5025890;28;20100;-74
2022/03/28 11:37:21;;;;;;;18.38;9.40;;;23.70;34.60;;;;;;5026562;28;19908;-74
2022/03/28 11:39:53;;;;;;;22.40;9.82;;;23.70;34.60;;;;;;5026349;28;20551;-80
2022/03/28 11:42:21;;;;;;;24.70;10.10;;;23.80;34.60;;;;;;5007640;28;20082;-74
2022/03/28 11:44:47;;;;;;;27.65;12.98;;;23.60;34.50;;;;;;5007059;28;20022;-76
2022/03/28 11:47:17;;;;;;;27.52;13.85;;;23.50;34.40;;;;;;5022881;28;20121;-76
2022/03/28 11:50:00;;;;;;;29.65;14.77;;;23.60;34.80;;;;;;5022117;28;20017;-76
2022/03/28 11:52:28;;;;;;;31.55;14.25;;;23.30;35.20;;;;;;5004817;28;20010;-76
2022/03/28 11:54:55;;;;;;;26.40;13.35;;;23.50;35.30;;;;;;5024163;28;20090;-76
2022/03/28 12:00:14;;;;;;;27.25;11.77;;;23.80;34.80;;;;;;5022239;28;20028;-77
2022/03/28 12:02:50;;;;;;;28.48;12.23;;;23.80;34.90;;;;;;5021695;28;20049;-76
2022/03/28 12:05:35;;;;;;;26.10;12.20;;;23.80;34.70;;;;;;5021071;28;20014;-78
2022/03/28 12:08:08;;;;;;;26.92;12.45;;;23.80;34.70;;;;;;5020485;28;20046;-83
2022/03/28 12:10:35;;;;;;;23.80;12.40;;;23.90;34.80;;;;;;5020796;28;20014;-77
2022/03/28 12:13:06;;;;;;;29.55;14.38;;;23.90;34.70;;;;;;5020984;28;20025;-75
2022/03/28 12:15:39;;;;;;;26.38;12.98;;;23.90;34.50;;;;;;5036253;28;20192;-74
2022/03/28 12:18:07;;;;;;;23.77;12.02;;;24.00;34.90;;;;;;5003655;28;20081;-84
2022/03/28 12:20:35;;;;;;;27.63;11.88;;;24.10;34.90;;;;;;5020932;28;20045;-84
2022/03/28 12:23:05;;;;;;;26.50;12.23;;;24.10;34.60;;;;;;5021921;28;20029;-77
2022/03/28 12:25:42;;;;;;;26.23;11.88;;;24.10;34.60;;;;;;5022920;28;20018;-87
2022/03/28 12:28:11;;;;;;;21.35;11.48;;;24.20;34.80;;;;;;5007648;28;20026;-77
2022/03/28 12:30:47;;;;;;;23.45;11.52;;;24.00;35.10;;;;;;5024796;28;20018;-77
2022/03/28 12:33:17;;;;;;;27.08;13.73;;;23.80;34.90;;;;;;5025362;28;20025;-77
2022/03/28 12:35:45;;;;;;;39.53;15.05;;;23.80;35.10;;;;;;5028552;28;20026;-76
2022/03/28 12:38:22;;;;;;;37.58;16.13;;;23.70;36.00;;;;;;5022861;28;20014;-85
2022/03/28 12:40:56;;;;;;;35.25;15.52;;;23.80;36.80;;;;;;5028650;28;20030;-77
2022/03/28 12:43:27;;;;;;;38.22;16.00;;;23.90;37.30;;;;;;5012237;28;20063;-76
2022/03/28 12:45:54;;;;;;;34.05;14.13;;;23.90;37.60;;;;;;5030156;28;20034;-76
2022/03/28 12:48:21;;;;;;;32.80;14.02;;;23.80;37.40;;;;;;5036726;28;20109;-75
2022/03/28 12:51:00;;;;;;;28.55;13.38;;;23.80;37.30;;;;;;5015482;28;20022;-76